createdAt,value
2022-12-17T00:00:29.493Z,94398.91
2022-12-17T00:01:45.289Z,94525.94
2022-12-17T00:03:00.924Z,94521.50
2022-12-17T00:04:16.766Z,94529.09
2022-12-17T00:05:32.114Z,94389.03
2022-12-17T00:06:47.615Z,94532.13
2022-12-17T00:08:03.089Z,94507.69
2022-12-17T00:09:18.666Z,94415.16
2022-12-17T00:10:34.395Z,94490.97
2022-12-17T00:11:49.636Z,94514.34
2022-12-17T00:13:05.931Z,94437.59
2022-12-17T00:14:21.116Z,94526.63
2022-12-17T00:15:36.434Z,94375.25
2022-12-17T00:16:51.963Z,94532.81
2022-12-17T00:18:07.387Z,94499.06
2022-12-17T00:19:22.574Z,94528.72
2022-12-17T00:20:37.482Z,94545.50
2022-12-17T00:21:52.879Z,94507.72
2022-12-17T00:23:22.562Z,94536.97
2022-12-17T00:24:38.055Z,94415.84
2022-12-17T00:25:53.288Z,94473.69
2022-12-17T00:27:08.793Z,94457.38
2022-12-17T00:28:29.027Z,94288.34
2022-12-17T00:29:44.544Z,94449.75
2022-12-17T00:30:59.505Z,94457.88
2022-12-17T00:32:15.229Z,94525.59
2022-12-17T00:33:33.952Z,94503.28
2022-12-17T00:34:49.794Z,94539.91
2022-12-17T00:36:13.132Z,94521.63
2022-12-17T00:37:28.533Z,94510.56
2022-12-17T00:38:44.088Z,94492.88
2022-12-17T00:39:59.719Z,94527.56
2022-12-17T00:41:15.241Z,94409.50
2022-12-17T00:42:30.489Z,94444.03
2022-12-17T00:43:45.911Z,94522.19
2022-12-17T00:45:01.452Z,94409.44
2022-12-17T00:46:18.047Z,94505.75
2022-12-17T00:47:34.731Z,94515.09
2022-12-17T00:48:50.265Z,94289.56
2022-12-17T00:50:05.310Z,94387.03
2022-12-17T00:51:28.063Z,94365.31
2022-12-17T00:52:43.610Z,94519.31
2022-12-17T00:53:59.094Z,94533.19
2022-12-17T00:55:14.621Z,94451.78
2022-12-17T00:56:30.190Z,94504.38
2022-12-17T00:57:45.614Z,94478.25
2022-12-17T00:59:03.769Z,94284.44
2022-12-17T01:00:19.099Z,94314.72
2022-12-17T01:01:34.576Z,94359.06
2022-12-17T01:02:49.902Z,94401.75
2022-12-17T01:04:05.235Z,94397.50
2022-12-17T01:05:20.541Z,94519.00
2022-12-17T01:06:35.869Z,94426.53
2022-12-17T01:07:51.378Z,94020.38
2022-12-17T01:09:07.156Z,94512.50
2022-12-17T01:10:39.638Z,94504.09
2022-12-17T01:11:56.609Z,94520.22
2022-12-17T01:13:12.316Z,94439.31
2022-12-17T01:14:27.842Z,94507.31
2022-12-17T01:15:43.272Z,94470.75
2022-12-17T01:16:58.302Z,94519.72
2022-12-17T01:18:13.813Z,94520.66
2022-12-17T01:19:30.802Z,94366.34
2022-12-17T01:20:46.204Z,94532.41
2022-12-17T01:22:04.032Z,94510.22
2022-12-17T01:23:19.424Z,94385.84
2022-12-17T01:24:34.929Z,94473.31
2022-12-17T01:25:50.666Z,94478.75
2022-12-17T01:27:06.121Z,94448.59
2022-12-17T01:28:21.452Z,94391.50
2022-12-17T01:29:36.997Z,94543.19
2022-12-17T01:30:54.190Z,94541.13
2022-12-17T01:32:09.850Z,94500.91
2022-12-17T01:33:26.937Z,94417.84
2022-12-17T01:34:42.536Z,93914.06
2022-12-17T01:35:57.849Z,94470.41
2022-12-17T01:37:13.427Z,94497.97
2022-12-17T01:38:31.046Z,94510.31
2022-12-17T01:39:46.312Z,94508.00
2022-12-17T01:41:01.998Z,94512.59
2022-12-17T01:42:17.488Z,94542.88
2022-12-17T01:43:33.739Z,94536.97
2022-12-17T01:45:12.604Z,94513.94
2022-12-17T01:46:28.095Z,94508.28
2022-12-17T01:47:46.307Z,94392.47
2022-12-17T01:49:06.911Z,94449.19
2022-12-17T01:50:23.131Z,94466.44
2022-12-17T01:51:38.656Z,94285.47
2022-12-17T01:52:54.079Z,94470.69
2022-12-17T01:54:12.565Z,94467.59
2022-12-17T01:55:27.873Z,94314.09
2022-12-17T01:56:43.707Z,94498.78
2022-12-17T01:57:59.250Z,94402.97
2022-12-17T01:59:15.821Z,94469.56
2022-12-17T02:00:35.067Z,94468.09
2022-12-17T02:01:50.585Z,94503.44
2022-12-17T02:03:06.242Z,94512.97
2022-12-17T02:04:21.663Z,94484.56
2022-12-17T02:05:43.775Z,94485.22
2022-12-17T02:07:10.259Z,94402.25
2022-12-17T02:08:55.832Z,94490.94
2022-12-17T02:10:28.323Z,94473.22
2022-12-17T02:12:17.499Z,94497.88
2022-12-17T02:13:40.583Z,94492.00
2022-12-17T02:15:05.697Z,94508.50
2022-12-17T02:16:45.131Z,94502.75
2022-12-17T02:18:08.084Z,94332.53
2022-12-17T02:19:59.410Z,94487.19
2022-12-17T02:21:17.584Z,94531.00
2022-12-17T02:22:52.837Z,94391.75
2022-12-17T02:24:30.603Z,94494.50
2022-12-17T02:26:06.950Z,94339.22
2022-12-17T02:27:28.214Z,94474.94
2022-12-17T02:28:45.680Z,94486.53
2022-12-17T02:30:06.750Z,94512.53
2022-12-17T02:31:23.778Z,94466.13
2022-12-17T02:32:41.651Z,94423.66
2022-12-17T02:33:56.857Z,94351.78
2022-12-17T02:35:13.639Z,94302.16
2022-12-17T02:36:29.261Z,94522.75
2022-12-17T02:38:05.797Z,94479.69
2022-12-17T02:39:21.548Z,94445.47
2022-12-17T02:40:40.611Z,94456.00
2022-12-17T02:42:12.235Z,94476.06
2022-12-17T02:43:29.754Z,94472.03
2022-12-17T02:44:48.662Z,94431.28
2022-12-17T02:46:05.625Z,94344.34
2022-12-17T02:47:26.504Z,94463.31
2022-12-17T02:48:43.211Z,94240.38
2022-12-17T02:49:59.028Z,94290.38
2022-12-17T02:51:16.382Z,94440.63
2022-12-17T02:52:37.041Z,94419.72
2022-12-17T02:54:07.535Z,94135.78
2022-12-17T02:55:24.069Z,94402.94
2022-12-17T02:56:39.631Z,94467.88
2022-12-17T02:57:54.989Z,94421.56
2022-12-17T02:59:10.582Z,94339.91
2022-12-17T03:00:26.736Z,94226.16
2022-12-17T03:01:42.463Z,94340.97
2022-12-17T03:02:59.504Z,94414.84
2022-12-17T03:04:16.179Z,94416.53
2022-12-17T03:05:47.794Z,94433.53
2022-12-17T03:07:04.199Z,94423.88
2022-12-17T03:08:19.727Z,94433.75
2022-12-17T03:09:35.232Z,94396.97
2022-12-17T03:10:50.963Z,94427.78
2022-12-17T03:12:06.630Z,94437.31
2022-12-17T03:13:22.200Z,94305.56
2022-12-17T03:14:37.737Z,94445.41
2022-12-17T03:15:53.186Z,94436.88
2022-12-17T03:17:08.649Z,94466.94
2022-12-17T03:18:24.184Z,94422.78
2022-12-17T03:19:39.596Z,94423.31
2022-12-17T03:20:54.971Z,94449.84
2022-12-17T03:22:10.124Z,94394.41
2022-12-17T03:23:28.047Z,94251.38
2022-12-17T03:24:43.542Z,94419.66
2022-12-17T03:25:59.006Z,94403.75
2022-12-17T03:27:14.752Z,94458.25
2022-12-17T03:28:30.903Z,94394.09
2022-12-17T03:29:46.609Z,94452.78
2022-12-17T03:31:09.823Z,94369.88
2022-12-17T03:32:25.460Z,94404.59
2022-12-17T03:33:41.272Z,94160.63
2022-12-17T03:35:04.489Z,94443.75
2022-12-17T03:36:19.629Z,94484.31
2022-12-17T03:37:35.137Z,94477.38
2022-12-17T03:38:50.690Z,94447.53
2022-12-17T03:40:05.883Z,94379.06
2022-12-17T03:41:21.124Z,94418.50
2022-12-17T03:42:36.701Z,94284.47
2022-12-17T03:43:52.065Z,94318.28
2022-12-17T03:45:07.555Z,94358.53
2022-12-17T03:46:23.027Z,94254.28
2022-12-17T03:47:38.150Z,94336.28
2022-12-17T03:48:53.726Z,94110.13
2022-12-17T03:50:09.210Z,94439.22
2022-12-17T03:51:24.971Z,94425.56
2022-12-17T03:52:40.273Z,94450.31
2022-12-17T03:53:55.650Z,94452.34
2022-12-17T03:55:11.174Z,94423.56
2022-12-17T03:56:26.593Z,94361.16
2022-12-17T03:57:41.997Z,94379.81
2022-12-17T03:58:57.279Z,94335.66
2022-12-17T04:00:12.692Z,94429.59
2022-12-17T04:01:27.983Z,94416.53
2022-12-17T04:02:43.597Z,94417.03
2022-12-17T04:04:09.520Z,94439.22
2022-12-17T04:05:24.996Z,94262.63
2022-12-17T04:06:40.457Z,94391.81
2022-12-17T04:07:55.728Z,94447.69
2022-12-17T04:09:11.382Z,94420.38
2022-12-17T04:10:27.492Z,94333.63
2022-12-17T04:11:42.782Z,94478.53
2022-12-17T04:12:57.968Z,94282.56
2022-12-17T04:14:13.516Z,94230.78
2022-12-17T04:15:29.023Z,94443.06
2022-12-17T04:16:44.320Z,94454.97
2022-12-17T04:17:59.940Z,94439.94
2022-12-17T04:19:26.277Z,94433.09
2022-12-17T04:20:41.664Z,94288.94
2022-12-17T04:21:57.097Z,94437.31
2022-12-17T04:23:12.557Z,94408.31
2022-12-17T04:24:28.204Z,94374.22
2022-12-17T04:25:43.716Z,94219.28
2022-12-17T04:26:59.249Z,94440.22
2022-12-17T04:28:14.454Z,94448.88
2022-12-17T04:29:30.202Z,94217.34
2022-12-17T04:30:45.527Z,94442.66
2022-12-17T04:32:00.839Z,94217.41
2022-12-17T04:33:16.191Z,94430.31
2022-12-17T04:34:31.670Z,94351.00
2022-12-17T04:35:46.940Z,94338.69
2022-12-17T04:37:02.413Z,94370.06
2022-12-17T04:38:18.131Z,94325.75
2022-12-17T04:39:33.584Z,94454.00
2022-12-17T04:40:48.777Z,94469.41
2022-12-17T04:42:04.203Z,94402.69
2022-12-17T04:43:28.229Z,94442.63
2022-12-17T04:44:43.747Z,94396.47
2022-12-17T04:45:58.984Z,94457.88
2022-12-17T04:47:14.228Z,94471.97
2022-12-17T04:48:29.828Z,94441.66
2022-12-17T04:49:44.990Z,94378.69
2022-12-17T04:51:00.434Z,94252.41
2022-12-17T04:52:15.796Z,94414.19
2022-12-17T04:53:31.280Z,94269.97
2022-12-17T04:54:46.552Z,94297.59
2022-12-17T04:56:01.999Z,94489.06
2022-12-17T04:57:17.389Z,94456.72
2022-12-17T04:58:32.417Z,94344.56
2022-12-17T04:59:47.439Z,94492.13
2022-12-17T05:01:19.910Z,94507.38
2022-12-17T05:02:39.466Z,94485.19
2022-12-17T05:03:58.015Z,94498.84
2022-12-17T05:05:13.634Z,94318.41
2022-12-17T05:06:29.210Z,94418.63
2022-12-17T05:07:44.688Z,94495.25
2022-12-17T05:09:00.195Z,94532.38
2022-12-17T05:10:15.543Z,94332.81
2022-12-17T05:11:30.801Z,94459.50
2022-12-17T05:12:48.829Z,94483.66
2022-12-17T05:14:04.285Z,94408.97
2022-12-17T05:15:19.773Z,94452.63
2022-12-17T05:16:35.304Z,94480.72
2022-12-17T05:17:50.713Z,94430.00
2022-12-17T05:19:06.025Z,94404.84
2022-12-17T05:20:21.455Z,94395.19
2022-12-17T05:21:36.983Z,94473.28
2022-12-17T05:23:15.129Z,94426.38
2022-12-17T05:24:30.793Z,94493.50
2022-12-17T05:25:46.274Z,94471.00
2022-12-17T05:27:01.508Z,94460.91
2022-12-17T05:28:17.034Z,94480.88
2022-12-17T05:29:32.733Z,94349.31
2022-12-17T05:30:48.339Z,94495.91
2022-12-17T05:32:03.783Z,94335.03
2022-12-17T05:33:28.301Z,94427.16
2022-12-17T05:34:43.737Z,94485.78
2022-12-17T05:35:59.142Z,94143.72
2022-12-17T05:37:14.766Z,94504.56
2022-12-17T05:38:30.056Z,94323.56
2022-12-17T05:39:45.580Z,94485.09
2022-12-17T05:41:01.182Z,94429.66
2022-12-17T05:42:16.417Z,94211.91
2022-12-17T05:43:31.798Z,94499.78
2022-12-17T05:44:47.306Z,94480.66
2022-12-17T05:46:03.094Z,94411.22
2022-12-17T05:47:18.407Z,94410.53
2022-12-17T05:48:34.002Z,94502.97
2022-12-17T05:49:49.420Z,94498.63
2022-12-17T05:51:09.519Z,94464.03
2022-12-17T05:52:25.713Z,94518.44
2022-12-17T05:53:40.771Z,94485.13
2022-12-17T05:54:56.345Z,94513.66
2022-12-17T05:56:13.047Z,94444.88
2022-12-17T05:57:28.100Z,94476.56
2022-12-17T05:58:43.270Z,94445.47
2022-12-17T05:59:58.710Z,94509.47
2022-12-17T06:01:19.374Z,94498.03
2022-12-17T06:02:37.342Z,94506.94
2022-12-17T06:03:56.225Z,94501.44
2022-12-17T06:05:11.492Z,94526.13
2022-12-17T06:06:29.680Z,94473.56
2022-12-17T06:07:48.249Z,94374.16
2022-12-17T06:09:05.676Z,94502.06
2022-12-17T06:10:21.071Z,94213.16
2022-12-17T06:11:38.791Z,94513.53
2022-12-17T06:12:56.706Z,94538.72
2022-12-17T06:14:14.471Z,94524.56
2022-12-17T06:15:29.870Z,94498.63
2022-12-17T06:16:45.414Z,94502.66
2022-12-17T06:18:16.330Z,94512.38
2022-12-17T06:19:34.438Z,94327.88
2022-12-17T06:20:50.086Z,94534.56
2022-12-17T06:22:05.361Z,94524.66
2022-12-17T06:23:28.611Z,94292.34
2022-12-17T06:24:46.543Z,94519.91
2022-12-17T06:26:04.001Z,94573.03
2022-12-17T06:27:19.216Z,94589.03
2022-12-17T06:28:37.081Z,94547.94
2022-12-17T06:29:57.394Z,94608.13
2022-12-17T06:31:13.891Z,94560.47
2022-12-17T06:32:32.104Z,94528.06
2022-12-17T06:33:47.323Z,94554.03
2022-12-17T06:35:02.542Z,94503.03
2022-12-17T06:36:22.799Z,94498.38
2022-12-17T06:37:38.312Z,94339.34
2022-12-17T06:38:53.967Z,94576.88
2022-12-17T06:40:09.542Z,94556.44
2022-12-17T06:41:25.096Z,94581.59
2022-12-17T06:42:43.694Z,94575.47
2022-12-17T06:44:02.231Z,94435.63
2022-12-17T06:45:19.895Z,94518.53
2022-12-17T06:48:04.134Z,94417.66
2022-12-17T06:49:22.488Z,94184.09
2022-12-17T06:50:38.017Z,94581.84
2022-12-17T06:51:53.530Z,94579.56
2022-12-17T06:53:29.830Z,94559.59
2022-12-17T06:55:03.842Z,94471.50
2022-12-17T06:56:21.646Z,94600.63
2022-12-17T06:57:40.847Z,94635.94
2022-12-17T06:58:59.297Z,94481.50
2022-12-17T07:00:14.880Z,94548.25
2022-12-17T07:01:32.876Z,94714.34
2022-12-17T07:02:48.523Z,94706.41
2022-12-17T07:04:03.856Z,94623.94
2022-12-17T07:05:19.422Z,94725.22
2022-12-17T07:06:34.800Z,94676.94
2022-12-17T07:07:49.975Z,94682.91
2022-12-17T07:09:05.514Z,94652.34
2022-12-17T07:10:20.963Z,94664.72
2022-12-17T07:11:36.425Z,94618.41
2022-12-17T07:12:51.493Z,94651.09
2022-12-17T07:14:06.895Z,94160.78
2022-12-17T07:15:22.340Z,94596.63
2022-12-17T07:16:37.949Z,94570.38
2022-12-17T07:17:53.710Z,94676.91
2022-12-17T07:19:08.917Z,94622.66
2022-12-17T07:20:24.634Z,94613.91
2022-12-17T07:21:40.076Z,94618.97
2022-12-17T07:23:15.328Z,94522.44
2022-12-17T07:24:30.636Z,94640.06
2022-12-17T07:25:56.397Z,94624.25
2022-12-17T07:27:13.983Z,94590.41
2022-12-17T07:28:29.153Z,94578.56
2022-12-17T07:29:44.492Z,94575.81
2022-12-17T07:31:08.091Z,94250.94
2022-12-17T07:32:23.682Z,94606.50
2022-12-17T07:33:39.101Z,94543.91
2022-12-17T07:34:54.830Z,94420.75
2022-12-17T07:36:14.228Z,94551.53
2022-12-17T07:37:29.670Z,94611.94
2022-12-17T07:38:45.251Z,94576.28
2022-12-17T07:40:00.618Z,94593.56
2022-12-17T07:41:17.690Z,94488.72
2022-12-17T07:42:33.239Z,94429.09
2022-12-17T07:43:53.008Z,94440.00
2022-12-17T07:45:08.480Z,94449.00
2022-12-17T07:46:23.979Z,94566.84
2022-12-17T07:47:39.245Z,94346.03
2022-12-17T07:48:54.926Z,94421.88
2022-12-17T07:50:10.360Z,94435.63
2022-12-17T07:51:25.939Z,94491.16
2022-12-17T07:52:41.493Z,94512.66
2022-12-17T07:53:56.812Z,94537.19
2022-12-17T07:55:16.729Z,94427.44
2022-12-17T07:56:33.475Z,94566.22
2022-12-17T07:57:49.111Z,94557.97
2022-12-17T07:59:04.741Z,94572.38
2022-12-17T08:00:20.322Z,94528.50
2022-12-17T08:01:35.708Z,94575.09
2022-12-17T08:02:51.131Z,94587.00
2022-12-17T08:04:06.296Z,94474.47
2022-12-17T08:05:21.828Z,94502.28
2022-12-17T08:06:37.603Z,94625.75
2022-12-17T08:07:53.085Z,94592.03
2022-12-17T08:09:08.035Z,94603.94
2022-12-17T08:10:23.911Z,94450.91
2022-12-17T08:11:39.941Z,94548.13
2022-12-17T08:12:55.252Z,94527.50
2022-12-17T08:14:10.749Z,94438.56
2022-12-17T08:15:26.375Z,94559.53
2022-12-17T08:16:42.099Z,94619.88
2022-12-17T08:17:57.174Z,94622.25
2022-12-17T08:19:19.793Z,94630.31
2022-12-17T08:20:35.162Z,94433.84
2022-12-17T08:21:50.707Z,94573.69
2022-12-17T08:23:06.259Z,94612.00
2022-12-17T08:24:21.504Z,94662.78
2022-12-17T08:25:37.098Z,94599.22
2022-12-17T08:26:52.374Z,94543.38
2022-12-17T08:28:15.776Z,94600.19
2022-12-17T08:29:42.255Z,94610.53
2022-12-17T08:30:57.727Z,94617.28
2022-12-17T08:32:13.242Z,94632.47
2022-12-17T08:33:28.807Z,94595.13
2022-12-17T08:34:47.252Z,94591.81
2022-12-17T08:36:09.048Z,94499.09
2022-12-17T08:39:13.703Z,94294.00
2022-12-17T08:40:29.636Z,94570.03
2022-12-17T08:41:54.533Z,94645.00
2022-12-17T08:43:18.333Z,94657.00
2022-12-17T08:44:33.558Z,94685.19
2022-12-17T08:45:52.213Z,94696.09
2022-12-17T08:47:07.716Z,94660.06
2022-12-17T08:48:26.775Z,94599.41
2022-12-17T08:49:42.448Z,94704.81
2022-12-17T08:50:59.150Z,94703.06
2022-12-17T08:52:14.856Z,94662.16
2022-12-17T08:53:34.744Z,94660.81
2022-12-17T08:54:50.584Z,94612.63
2022-12-17T08:56:06.176Z,94705.91
2022-12-17T08:57:31.360Z,94610.53
2022-12-17T08:58:47.441Z,94629.75
2022-12-17T09:00:02.725Z,94571.94
2022-12-17T09:01:23.669Z,94554.53
2022-12-17T09:02:44.199Z,94699.72
2022-12-17T09:04:00.817Z,94365.25
2022-12-17T09:05:33.015Z,94164.53
2022-12-17T09:06:48.305Z,94136.88
2022-12-17T09:08:03.683Z,94672.88
2022-12-17T09:09:23.201Z,94713.66
2022-12-17T09:10:38.443Z,94701.31
2022-12-17T09:11:53.829Z,94646.88
2022-12-17T09:13:09.472Z,94642.59
2022-12-17T09:14:26.746Z,94622.16
2022-12-17T09:15:42.113Z,94635.31
2022-12-17T09:16:57.737Z,94623.31
2022-12-17T09:18:16.264Z,94710.41
2022-12-17T09:19:34.408Z,94374.50
2022-12-17T09:20:52.912Z,94721.53
2022-12-17T09:22:12.888Z,94615.38
2022-12-17T09:23:27.980Z,94707.28
2022-12-17T09:24:43.294Z,94585.28
2022-12-17T09:25:58.717Z,94732.13
2022-12-17T09:27:14.291Z,94765.59
2022-12-17T09:28:29.242Z,94770.97
2022-12-17T09:29:51.721Z,94687.38
2022-12-17T09:31:07.157Z,94685.13
2022-12-17T09:32:22.803Z,94782.06
2022-12-17T09:33:38.549Z,94787.75
2022-12-17T09:35:17.207Z,94788.28
2022-12-17T09:36:32.885Z,94610.56
2022-12-17T09:37:50.927Z,94791.84
2022-12-17T09:39:07.290Z,94754.41
2022-12-17T09:40:23.992Z,94794.50
2022-12-17T09:41:45.330Z,94794.41
2022-12-17T09:43:13.750Z,94705.41
2022-12-17T09:45:09.151Z,94778.50
2022-12-17T09:47:02.431Z,94775.47
2022-12-17T09:48:32.754Z,94773.56
2022-12-17T09:49:48.988Z,94670.50
2022-12-17T09:51:05.496Z,94726.41
2022-12-17T09:52:43.151Z,94773.97
2022-12-17T09:54:04.680Z,94754.72
2022-12-17T09:55:21.486Z,94772.28
2022-12-17T09:56:42.026Z,94696.22
2022-12-17T09:57:57.459Z,94681.66
2022-12-17T09:59:13.041Z,94732.84
2022-12-17T10:00:38.223Z,94705.56
2022-12-17T10:01:55.069Z,94742.66
2022-12-17T10:03:10.738Z,94594.53
2022-12-17T10:04:35.681Z,94706.47
2022-12-17T10:05:51.681Z,94714.81
2022-12-17T10:07:07.337Z,94709.03
2022-12-17T10:08:25.550Z,94476.50
2022-12-17T10:09:40.877Z,94707.09
2022-12-17T10:11:04.528Z,94609.94
2022-12-17T10:12:36.531Z,94727.56
2022-12-17T10:13:52.086Z,94673.41
2022-12-17T10:15:07.234Z,94732.69
2022-12-17T10:16:44.731Z,94628.25
2022-12-17T10:18:00.379Z,94773.81
2022-12-17T10:19:15.905Z,94547.00
2022-12-17T10:20:48.567Z,94781.56
2022-12-17T10:22:04.239Z,94785.56
2022-12-17T10:23:19.856Z,94692.59
2022-12-17T10:24:35.442Z,94661.97
2022-12-17T10:25:51.479Z,94688.56
2022-12-17T10:27:13.125Z,94768.22
2022-12-17T10:28:34.827Z,94675.75
2022-12-17T10:29:52.493Z,94634.34
2022-12-17T10:31:08.395Z,94770.97
2022-12-17T10:32:32.836Z,94644.63
2022-12-17T10:33:57.347Z,94783.13
2022-12-17T10:35:13.400Z,94734.34
2022-12-17T10:36:41.416Z,94594.47
2022-12-17T10:37:56.992Z,94708.69
2022-12-17T10:39:13.859Z,94775.44
2022-12-17T10:40:45.733Z,94579.91
2022-12-17T10:42:01.765Z,94608.56
2022-12-17T10:43:17.417Z,94764.19
2022-12-17T10:44:47.648Z,94746.88
2022-12-17T10:46:15.184Z,94761.09
2022-12-17T10:47:39.674Z,94647.16
2022-12-17T10:48:55.024Z,94739.47
2022-12-17T10:50:21.499Z,94560.63
2022-12-17T10:51:43.381Z,94729.84
2022-12-17T10:52:59.037Z,94748.09
2022-12-17T10:54:14.557Z,94730.00
2022-12-17T10:55:46.587Z,94440.44
2022-12-17T10:57:10.929Z,94734.44
2022-12-17T10:58:34.428Z,94699.41
2022-12-17T10:59:56.167Z,94732.72
2022-12-17T11:01:19.116Z,94695.69
2022-12-17T11:02:44.320Z,94510.78
2022-12-17T11:04:14.840Z,94616.47
2022-12-17T11:05:56.312Z,94680.72
2022-12-17T11:07:16.609Z,94728.91
2022-12-17T11:08:35.154Z,94563.63
2022-12-17T11:10:09.502Z,94692.31
2022-12-17T11:11:32.452Z,94713.78
2022-12-17T11:13:13.871Z,94689.78
2022-12-17T11:14:32.100Z,94625.00
2022-12-17T11:16:08.218Z,94570.88
2022-12-17T11:17:31.108Z,94715.59
2022-12-17T11:19:08.967Z,94702.53
2022-12-17T11:20:42.844Z,94648.97
2022-12-17T11:22:37.759Z,94709.44
2022-12-17T11:23:58.289Z,94736.94
2022-12-17T11:25:31.939Z,94710.75
2022-12-17T11:26:55.042Z,94727.47
2022-12-17T11:28:23.791Z,94739.94
2022-12-17T11:29:39.381Z,94567.16
2022-12-17T11:31:12.461Z,94730.00
2022-12-17T11:32:52.666Z,94724.97
2022-12-17T11:34:36.274Z,94746.38
2022-12-17T11:36:32.519Z,94743.78
2022-12-17T11:38:06.584Z,94693.72
2022-12-17T11:39:21.673Z,94753.16
2022-12-17T11:40:51.254Z,94714.41
2022-12-17T11:42:32.392Z,94716.50
2022-12-17T11:44:13.814Z,94745.63
2022-12-17T11:45:57.757Z,94737.09
2022-12-17T11:47:40.933Z,94745.44
2022-12-17T11:49:06.913Z,94655.63
2022-12-17T11:50:32.877Z,94748.28
2022-12-17T11:52:11.740Z,94168.56
2022-12-17T11:54:16.140Z,94740.03
2022-12-17T11:55:34.433Z,94749.34
2022-12-17T11:56:58.407Z,94719.16
2022-12-17T11:58:26.766Z,94764.63
2022-12-17T12:00:02.359Z,94768.81
2022-12-17T12:01:22.409Z,94754.44
2022-12-17T12:03:23.318Z,94711.91
2022-12-17T12:05:13.318Z,94502.50
2022-12-17T12:07:11.993Z,94671.00
2022-12-17T12:08:47.048Z,94751.81
2022-12-17T12:10:47.943Z,94657.38
2022-12-17T12:12:12.393Z,94753.97
2022-12-17T12:13:51.090Z,94487.50
2022-12-17T12:15:32.641Z,94758.22
2022-12-17T12:17:07.332Z,94243.19
2022-12-17T12:18:34.863Z,94764.50
2022-12-17T12:20:10.862Z,94751.31
2022-12-17T12:21:41.804Z,94552.56
2022-12-17T12:23:00.102Z,94758.22
2022-12-17T12:24:26.939Z,94755.06
2022-12-17T12:26:07.055Z,94534.44
2022-12-17T12:27:42.783Z,94749.84
2022-12-17T12:29:15.843Z,94760.34
2022-12-17T12:30:37.967Z,94640.22
2022-12-17T12:34:20.026Z,94734.09
2022-12-17T12:35:42.623Z,94689.34
2022-12-17T12:37:01.840Z,94707.09
2022-12-17T12:38:20.446Z,94651.06
2022-12-17T12:39:45.688Z,94672.59
2022-12-17T12:41:39.174Z,94754.22
2022-12-17T12:43:08.665Z,94769.84
2022-12-17T12:44:49.718Z,94769.78
2022-12-17T12:46:21.059Z,94741.63
2022-12-17T12:48:05.784Z,94740.50
2022-12-17T12:49:30.165Z,94756.69
2022-12-17T12:51:00.723Z,94745.56
2022-12-17T12:52:19.241Z,94746.91
2022-12-17T12:53:34.919Z,94682.56
2022-12-17T12:55:10.353Z,94713.38
2022-12-17T12:56:53.059Z,94609.94
2022-12-17T12:58:16.148Z,94699.91
2022-12-17T12:59:45.089Z,94765.34
2022-12-17T13:01:09.595Z,94768.00
2022-12-17T13:02:53.975Z,94704.19
2022-12-17T13:04:15.446Z,94690.25
2022-12-17T13:06:57.207Z,94692.03
2022-12-17T13:08:21.958Z,94678.53
2022-12-17T13:09:23.020Z,94766.00
2022-12-17T13:10:38.169Z,94607.97
2022-12-17T13:11:38.891Z,94589.47
2022-12-17T13:12:52.155Z,94687.44
2022-12-17T13:13:58.805Z,94746.19
2022-12-17T13:15:15.983Z,94754.03
2022-12-17T13:16:36.038Z,94694.91
2022-12-17T13:17:47.176Z,94713.44
2022-12-17T13:18:46.751Z,94717.81
2022-12-17T13:20:00.778Z,94737.59
2022-12-17T13:21:05.535Z,94774.97
2022-12-17T13:22:23.711Z,94765.66
2022-12-17T13:23:36.775Z,94766.50
2022-12-17T13:24:34.310Z,94739.00
2022-12-17T13:25:33.132Z,94766.31
2022-12-17T13:26:43.703Z,94763.00
2022-12-17T13:27:41.810Z,94638.50
2022-12-17T13:28:54.531Z,94766.41
2022-12-17T13:30:36.151Z,94735.88
2022-12-17T13:32:05.099Z,94774.03
2022-12-17T13:33:31.172Z,94763.00
2022-12-17T13:34:35.791Z,94772.81
2022-12-17T13:36:00.134Z,94764.78
2022-12-17T13:37:22.601Z,94774.22
2022-12-17T13:38:38.464Z,94776.53
2022-12-17T13:39:45.171Z,94771.13
2022-12-17T13:41:08.146Z,94766.06
2022-12-17T13:42:38.236Z,94745.50
2022-12-17T13:43:40.410Z,94706.66
2022-12-17T13:44:45.771Z,94677.34
2022-12-17T13:45:44.027Z,94473.91
2022-12-17T13:46:47.896Z,94238.16
2022-12-17T13:47:59.740Z,94792.88
2022-12-17T13:49:00.344Z,94689.56
2022-12-17T13:51:21.379Z,94687.41
2022-12-17T13:52:23.783Z,94802.31
2022-12-17T13:53:20.642Z,94577.53
2022-12-17T13:54:19.557Z,94769.75
2022-12-17T13:55:29.168Z,94829.50
2022-12-17T13:56:41.877Z,94607.75
2022-12-17T13:57:38.781Z,94829.94
2022-12-17T13:58:36.612Z,94663.34
2022-12-17T13:59:33.783Z,94673.59
2022-12-17T14:00:34.838Z,94748.09
2022-12-17T14:01:35.433Z,94720.72
2022-12-17T14:02:41.876Z,94789.50
2022-12-17T14:05:02.742Z,94737.44
2022-12-17T14:06:04.427Z,94779.47
2022-12-17T14:07:06.064Z,94788.53
2022-12-17T14:08:06.897Z,94522.09
2022-12-17T14:09:04.711Z,94637.00
2022-12-17T14:10:04.696Z,94742.81
2022-12-17T14:11:21.692Z,94792.44
2022-12-17T14:12:23.963Z,94811.75
2022-12-17T14:13:20.917Z,94838.03
2022-12-17T14:14:42.820Z,94796.78
2022-12-17T14:15:48.397Z,94786.41
2022-12-17T14:16:50.605Z,94648.88
2022-12-17T14:17:50.991Z,94815.94
2022-12-17T14:18:54.318Z,94834.81
2022-12-17T14:20:09.843Z,94668.00
2022-12-17T14:21:10.007Z,94775.72
2022-12-17T14:22:07.296Z,94833.56
2022-12-17T14:23:32.965Z,94813.00
2022-12-17T14:24:32.929Z,94606.56
2022-12-17T14:25:42.057Z,94841.56
2022-12-17T14:27:02.335Z,94822.63
2022-12-17T14:28:20.543Z,94745.00
2022-12-17T14:29:25.347Z,94802.88
2022-12-17T14:30:43.134Z,94807.97
2022-12-17T14:32:01.401Z,94711.41
2022-12-17T14:32:58.984Z,94829.97
2022-12-17T14:34:13.528Z,94807.34
2022-12-17T14:35:25.062Z,94726.66
2022-12-17T14:36:26.559Z,94723.78
2022-12-17T14:37:49.838Z,94688.22
2022-12-17T14:39:00.794Z,94816.41
2022-12-17T14:40:04.658Z,94401.22
2022-12-17T14:41:34.988Z,94740.34
2022-12-17T14:42:43.599Z,94813.94
2022-12-17T14:43:41.230Z,94849.66
2022-12-17T14:44:50.439Z,94850.78
2022-12-17T14:46:18.471Z,94835.25
2022-12-17T14:47:30.704Z,94872.84
2022-12-17T14:48:50.376Z,94842.25
2022-12-17T14:49:55.262Z,94845.38
2022-12-17T14:50:59.393Z,94760.06
2022-12-17T14:52:15.349Z,94725.84
2022-12-17T14:53:26.978Z,94868.53
2022-12-17T14:54:25.918Z,94856.16
2022-12-17T14:55:26.938Z,94872.34
2022-12-17T14:56:23.900Z,94866.38
2022-12-17T14:57:23.073Z,94711.50
2022-12-17T14:58:25.062Z,94845.34
2022-12-17T14:59:40.968Z,94850.88
2022-12-17T15:01:11.365Z,94850.94
2022-12-17T15:02:08.502Z,94847.03
2022-12-17T15:03:06.468Z,94821.44
2022-12-17T15:04:03.840Z,94799.84
2022-12-17T15:05:29.505Z,94801.91
2022-12-17T15:06:30.611Z,94803.09
2022-12-17T15:07:30.705Z,94638.31
2022-12-17T15:08:40.942Z,94857.13
2022-12-17T15:09:42.162Z,94368.53
2022-12-17T15:10:48.131Z,94811.25
2022-12-17T15:11:47.864Z,94874.78
2022-12-17T15:12:44.850Z,94860.00
2022-12-17T15:13:42.456Z,94538.16
2022-12-17T15:14:43.125Z,94859.97
2022-12-17T15:15:41.620Z,94862.00
2022-12-17T15:17:09.691Z,94785.13
2022-12-17T15:18:07.720Z,94820.22
2022-12-17T15:20:31.324Z,94872.00
2022-12-17T15:21:35.867Z,94839.94
2022-12-17T15:22:32.785Z,94790.84
2022-12-17T15:23:36.336Z,94876.13
2022-12-17T15:24:43.853Z,94772.41
2022-12-17T15:25:46.873Z,94687.56
2022-12-17T15:26:55.591Z,94840.66